Time;durP1;ratioP1;P1;durP2;ratioP2;P2;SDS_P1;SDS_P2;PMS_P1;PMS_P2;Temp;Humidity;BMP_temperature;BMP_pressure;BME280_temperature;BME280_humidity;BME280_pressure;Samples;Min_cycle;Max_cycle;Signal;HPM_P1;HPM_P2
2022/06/26 00:02:02;;;;;;;3.65;3.35;;;21.90;99.90;;;;;;4994058;28;20218;-62
2022/06/26 00:04:29;;;;;;;3.97;3.30;;;21.90;99.90;;;;;;4992174;28;20202;-62
2022/06/26 00:06:59;;;;;;;4.07;3.40;;;21.90;99.90;;;;;;5000070;28;20210;-62
2022/06/26 00:09:26;;;;;;;4.25;3.85;;;21.80;99.90;;;;;;4989450;28;20202;-62
2022/06/26 00:11:54;;;;;;;4.10;3.70;;;21.80;99.90;;;;;;4996142;28;20214;-62
2022/06/26 00:14:21;;;;;;;3.75;3.45;;;21.80;99.90;;;;;;4994249;28;20210;-62
2022/06/26 00:16:48;;;;;;;3.88;3.47;;;21.80;99.90;;;;;;5001830;28;20225;-62
2022/06/26 00:19:15;;;;;;;4.95;3.40;;;21.90;99.90;;;;;;5002499;28;20610;-62
2022/06/26 00:21:41;;;;;;;4.45;3.63;;;21.90;99.90;;;;;;4994090;28;20232;-62
2022/06/26 00:24:08;;;;;;;3.88;3.55;;;21.90;99.90;;;;;;5006408;28;20209;-62
2022/06/26 00:26:35;;;;;;;6.07;3.75;;;21.90;99.90;;;;;;4990529;28;20221;-62
2022/06/26 00:29:03;;;;;;;4.32;3.42;;;21.80;99.90;;;;;;4991513;28;20201;-62
2022/06/26 00:31:30;;;;;;;6.38;3.50;;;21.80;99.90;;;;;;4996245;28;20214;-62
2022/06/26 00:33:57;;;;;;;4.97;3.67;;;21.80;99.90;;;;;;5008108;28;20199;-62
2022/06/26 00:36:24;;;;;;;5.68;3.45;;;21.80;99.90;;;;;;4984104;28;20213;-62
2022/06/26 00:38:51;;;;;;;3.97;3.60;;;21.70;99.90;;;;;;5001148;28;20205;-62
2022/06/26 00:41:18;;;;;;;3.60;3.30;;;21.80;99.90;;;;;;4997472;28;20329;-62
2022/06/26 00:43:45;;;;;;;4.72;3.70;;;21.80;99.90;;;;;;4978671;28;20710;-62
2022/06/26 00:46:13;;;;;;;5.25;3.63;;;21.80;99.90;;;;;;4986980;28;20206;-62
2022/06/26 00:48:40;;;;;;;4.57;3.60;;;21.80;99.90;;;;;;4991487;28;20217;-62
2022/06/26 00:51:07;;;;;;;4.32;3.92;;;21.60;99.90;;;;;;4988497;28;20222;-62
2022/06/26 00:53:34;;;;;;;4.38;3.53;;;21.70;99.90;;;;;;4984426;28;22809;-62
2022/06/26 00:56:01;;;;;;;4.65;3.28;;;21.70;99.90;;;;;;5006665;28;20206;-62
2022/06/26 00:58:28;;;;;;;3.60;3.33;;;21.80;99.90;;;;;;4974513;28;20913;-62
2022/06/26 01:00:55;;;;;;;3.58;3.28;;;21.70;99.90;;;;;;4987252;28;20236;-62
2022/06/26 01:03:24;;;;;;;3.60;3.30;;;21.70;99.90;;;;;;4989601;28;20202;-62
2022/06/26 01:05:51;;;;;;;4.10;3.80;;;21.60;99.90;;;;;;4998789;28;20198;-62
2022/06/26 01:08:17;;;;;;;4.18;3.50;;;21.70;99.90;;;;;;4988855;28;20209;-62
2022/06/26 01:10:48;;;;;;;3.55;3.25;;;21.60;99.90;;;;;;4994258;28;20205;-62
2022/06/26 01:13:15;;;;;;;4.53;3.97;;;21.60;99.90;;;;;;4985158;28;20209;-62
2022/06/26 01:15:43;;;;;;;4.22;3.83;;;21.60;99.90;;;;;;4969921;28;20604;-62
2022/06/26 01:18:10;;;;;;;4.40;4.00;;;21.60;99.90;;;;;;5005131;28;20245;-62
2022/06/26 01:20:39;;;;;;;4.38;3.97;;;21.60;99.90;;;;;;4988682;28;20230;-62
2022/06/26 01:23:08;;;;;;;3.92;3.63;;;21.50;99.90;;;;;;4983440;28;20210;-62
2022/06/26 01:25:42;;;;;;;4.07;3.78;;;21.50;99.90;;;;;;4999541;28;20206;-62
2022/06/26 01:28:09;;;;;;;5.10;3.90;;;21.40;99.90;;;;;;4982063;28;20217;-62
2022/06/26 01:30:36;;;;;;;4.70;3.60;;;21.40;99.90;;;;;;4974819;28;23743;-62
2022/06/26 01:33:03;;;;;;;5.32;3.85;;;21.40;99.90;;;;;;5003925;28;20612;-62
2022/06/26 01:35:30;;;;;;;4.82;4.20;;;21.30;99.90;;;;;;4992428;28;20213;-62
2022/06/26 01:38:07;;;;;;;4.82;4.18;;;21.20;99.90;;;;;;4995553;28;20230;-62
2022/06/26 01:40:35;;;;;;;4.47;4.07;;;21.20;99.90;;;;;;4990838;28;20230;-62
2022/06/26 01:43:02;;;;;;;5.82;4.47;;;21.20;99.90;;;;;;4983382;28;20621;-62
2022/06/26 01:45:29;;;;;;;4.68;4.20;;;22.80;99.90;;;;;;4977428;28;20202;-62
2022/06/26 01:47:56;;;;;;;5.22;4.22;;;21.10;99.90;;;;;;4989684;28;20217;-62
2022/06/26 01:50:23;;;;;;;4.72;4.22;;;21.10;99.90;;;;;;5000878;28;21825;-62
2022/06/26 01:52:49;;;;;;;4.20;3.80;;;20.90;99.90;;;;;;5007670;28;20279;-62
2022/06/26 01:55:16;;;;;;;5.22;4.30;;;21.00;99.90;;;;;;4979682;28;20228;-62
2022/06/26 01:57:44;;;;;;;5.05;4.40;;;22.10;99.90;;;;;;4987432;28;20213;-62
2022/06/26 02:00:13;;;;;;;4.20;3.90;;;20.90;99.90;;;;;;4980888;28;20209;-62
2022/06/26 02:02:39;;;;;;;4.57;4.18;;;20.90;99.90;;;;;;4971945;28;20298;-62
2022/06/26 02:05:07;;;;;;;4.53;4.22;;;20.80;99.90;;;;;;5003876;28;20199;-62
2022/06/26 02:07:33;;;;;;;4.90;4.50;;;20.80;99.90;;;;;;4986243;28;20210;-62
2022/06/26 02:15:30;;;;;;;4.95;4.53;;;20.70;99.90;;;;;;4977133;28;20217;-62
2022/06/26 02:17:57;;;;;;;5.10;4.60;;;20.60;99.90;;;;;;4992183;28;20599;-63
2022/06/26 02:20:24;;;;;;;6.10;4.47;;;20.40;99.90;;;;;;4989231;28;20653;-63
2022/06/26 02:22:51;;;;;;;5.30;4.55;;;20.40;99.90;;;;;;5005806;28;20191;-63
2022/06/26 02:25:18;;;;;;;5.15;4.60;;;20.30;99.90;;;;;;4990548;28;20616;-63
2022/06/26 02:27:46;;;;;;;6.47;4.47;;;20.30;99.90;;;;;;5000266;28;21081;-63
2022/06/26 02:30:12;;;;;;;4.72;4.22;;;20.10;99.90;;;;;;4983681;28;20202;-63
2022/06/26 02:32:39;;;;;;;6.18;4.20;;;20.20;99.90;;;;;;4975749;28;20221;-63
2022/06/26 02:35:06;;;;;;;4.85;4.32;;;20.20;99.90;;;;;;4998212;28;20210;-63
2022/06/26 02:37:34;;;;;;;6.57;4.22;;;20.10;99.90;;;;;;4988900;28;20198;-63
2022/06/26 02:40:01;;;;;;;7.68;5.65;;;20.00;99.90;;;;;;4985974;28;20216;-63
2022/06/26 02:42:28;;;;;;;5.90;4.88;;;20.00;99.90;;;;;;5001864;28;25615;-63
2022/06/26 02:44:56;;;;;;;5.57;4.30;;;19.90;99.90;;;;;;4983579;28;20206;-62
2022/06/26 02:47:23;;;;;;;4.50;4.10;;;19.90;99.90;;;;;;4984039;28;20198;-63
2022/06/26 02:49:50;;;;;;;6.07;4.70;;;19.90;99.90;;;;;;4992161;28;20217;-63
2022/06/26 02:52:16;;;;;;;4.90;4.28;;;19.90;99.90;;;;;;5007456;28;20198;-64
2022/06/26 02:54:43;;;;;;;5.22;4.40;;;21.40;99.90;;;;;;4993990;28;20205;-63
2022/06/26 02:57:10;;;;;;;6.35;4.80;;;19.90;99.90;;;;;;5011801;28;20213;-63
2022/06/26 02:59:37;;;;;;;7.03;5.25;;;19.80;99.90;;;;;;4994034;28;20205;-63
2022/06/26 03:02:05;;;;;;;5.20;4.80;;;19.90;99.90;;;;;;5006956;28;20233;-63
2022/06/26 03:04:32;;;;;;;6.15;5.00;;;19.80;99.90;;;;;;4988197;28;20214;-63
2022/06/26 03:06:59;;;;;;;4.85;4.35;;;19.80;99.90;;;;;;5000153;28;20221;-63
2022/06/26 03:09:26;;;;;;;4.90;4.40;;;19.80;99.90;;;;;;4987341;28;20210;-63
2022/06/26 03:11:53;;;;;;;7.07;4.38;;;19.80;99.90;;;;;;5001422;28;20867;-63
2022/06/26 03:14:19;;;;;;;6.40;5.00;;;19.80;99.90;;;;;;5009801;28;20205;-63
2022/06/26 03:16:46;;;;;;;5.32;4.82;;;19.80;99.90;;;;;;4997717;28;20222;-63
2022/06/26 03:19:14;;;;;;;6.82;4.53;;;19.80;99.90;;;;;;4988112;28;20323;-64
2022/06/26 03:21:41;;;;;;;5.43;4.93;;;19.90;99.90;;;;;;4998231;28;20265;-63
2022/06/26 03:24:08;;;;;;;6.22;4.72;;;19.90;99.90;;;;;;5008710;28;20198;-63
2022/06/26 03:26:37;;;;;;;5.53;5.03;;;20.00;99.90;;;;;;5009060;28;20289;-63
2022/06/26 03:29:06;;;;;;;5.07;4.68;;;20.00;99.90;;;;;;4992702;28;21387;-62
2022/06/26 03:31:33;;;;;;;5.20;4.75;;;20.00;99.90;;;;;;4994781;28;20984;-62
2022/06/26 03:34:01;;;;;;;4.82;4.43;;;;;;;;;;4992666;28;20398;-62
2022/06/26 03:36:29;;;;;;;5.00;4.60;;;20.10;99.90;;;;;;4987563;28;20738;-64
2022/06/26 03:38:57;;;;;;;5.65;5.15;;;20.10;99.90;;;;;;5003918;28;20280;-64
2022/06/26 03:41:24;;;;;;;5.68;4.80;;;20.10;99.90;;;;;;4980904;28;20222;-64
2022/06/26 03:43:51;;;;;;;5.35;4.55;;;20.10;99.90;;;;;;4998784;28;20273;-64
2022/06/26 03:46:18;;;;;;;5.50;5.00;;;20.10;99.90;;;;;;4990051;28;20657;-64
2022/06/26 03:48:45;;;;;;;5.65;5.07;;;20.10;99.90;;;;;;5016027;28;20206;-64
2022/06/26 03:51:12;;;;;;;5.70;5.03;;;20.00;99.90;;;;;;4988028;28;21276;-64
2022/06/26 03:53:40;;;;;;;7.20;4.90;;;20.10;99.90;;;;;;5001998;28;20209;-63
2022/06/26 03:56:07;;;;;;;5.22;4.72;;;20.00;99.90;;;;;;5011352;28;20206;-64
2022/06/26 03:58:34;;;;;;;7.07;5.50;;;19.90;99.90;;;;;;5011418;28;20213;-63
2022/06/26 04:01:01;;;;;;;5.95;5.20;;;19.90;99.90;;;;;;5000545;28;20207;-63
2022/06/26 04:03:28;;;;;;;5.88;4.68;;;20.00;99.90;;;;;;4997997;28;20198;-63
2022/06/26 04:05:55;;;;;;;5.35;4.85;;;19.90;99.90;;;;;;4991470;28;20221;-64
2022/06/26 04:08:21;;;;;;;6.63;5.15;;;19.90;99.90;;;;;;4992905;28;20203;-63
2022/06/26 04:10:50;;;;;;;6.60;4.85;;;19.90;99.90;;;;;;5002816;28;20206;-64
2022/06/26 04:13:17;;;;;;;5.28;4.65;;;19.90;99.90;;;;;;4990771;28;20202;-64
2022/06/26 04:15:43;;;;;;;5.53;5.07;;;19.90;99.90;;;;;;5005184;28;20203;-63
2022/06/26 04:18:10;;;;;;;5.40;4.90;;;20.00;99.90;;;;;;4983509;28;20943;-63
2022/06/26 04:20:37;;;;;;;4.85;4.45;;;20.00;99.90;;;;;;4985600;28;20549;-63
2022/06/26 04:23:07;;;;;;;7.18;5.05;;;20.00;99.90;;;;;;4997341;28;20234;-63
2022/06/26 04:25:36;;;;;;;5.32;4.82;;;20.00;99.90;;;;;;4982056;28;20222;-64
2022/06/26 04:28:06;;;;;;;6.70;5.40;;;20.10;99.90;;;;;;5005750;28;20202;-63
2022/06/26 04:30:33;;;;;;;7.38;4.90;;;20.10;99.90;;;;;;4997105;28;20209;-63
2022/06/26 04:33:00;;;;;;;5.72;4.50;;;20.10;99.90;;;;;;5010184;28;20210;-63
2022/06/26 04:35:26;;;;;;;8.30;5.10;;;20.20;99.90;;;;;;4968822;28;25952;-63
2022/06/26 04:37:53;;;;;;;5.38;4.90;;;20.10;99.90;;;;;;4991428;28;20203;-64
2022/06/26 04:40:20;;;;;;;4.80;4.40;;;20.20;99.90;;;;;;5004445;28;20205;-64
2022/06/26 04:42:47;;;;;;;8.13;5.03;;;20.20;99.90;;;;;;4996869;28;20241;-62
2022/06/26 04:45:15;;;;;;;5.80;5.00;;;20.20;99.90;;;;;;4996749;28;20202;-63
2022/06/26 04:47:42;;;;;;;5.00;4.60;;;18.80;99.90;;;;;;5004026;28;20194;-64
2022/06/26 04:50:10;;;;;;;5.35;4.82;;;20.20;99.90;;;;;;4981609;28;20202;-64
2022/06/26 04:52:36;;;;;;;5.75;4.82;;;19.50;99.90;;;;;;4989278;28;20198;-62
2022/06/26 04:55:04;;;;;;;8.55;4.78;;;20.30;99.90;;;;;;5014220;28;20198;-64
2022/06/26 04:57:31;;;;;;;4.75;4.22;;;20.20;99.90;;;;;;4981009;28;20329;-64
2022/06/26 04:59:58;;;;;;;5.25;4.60;;;20.30;99.90;;;;;;5001386;28;20190;-64
2022/06/26 05:02:26;;;;;;;8.32;4.40;;;20.30;99.90;;;;;;4984299;28;20750;-62
2022/06/26 05:04:53;;;;;;;10.52;4.85;;;20.30;99.90;;;;;;4987747;28;20628;-64
2022/06/26 05:07:20;;;;;;;4.68;4.20;;;20.30;99.90;;;;;;4975274;28;20217;-64
2022/06/26 05:09:47;;;;;;;7.10;4.50;;;18.30;99.90;;;;;;4990879;28;20239;-63
2022/06/26 05:12:13;;;;;;;7.25;4.80;;;20.40;99.90;;;;;;4990647;28;20229;-63
2022/06/26 05:14:40;;;;;;;5.78;4.22;;;20.50;99.90;;;;;;4987327;28;20210;-63
2022/06/26 05:17:07;;;;;;;5.75;5.22;;;20.50;99.90;;;;;;5011054;28;20205;-64
2022/06/26 05:19:35;;;;;;;6.97;4.20;;;20.50;99.90;;;;;;5001920;28;20229;-63
2022/06/26 05:22:02;;;;;;;4.65;4.18;;;20.60;99.90;;;;;;4978720;28;20221;-63
2022/06/26 05:24:30;;;;;;;7.65;4.30;;;20.70;99.90;;;;;;5007379;28;20316;-63
2022/06/26 05:26:58;;;;;;;9.00;4.57;;;20.70;99.90;;;;;;4994221;28;20288;-64
2022/06/26 05:29:25;;;;;;;6.22;4.60;;;20.70;99.90;;;;;;4999286;28;20220;-63
2022/06/26 05:31:52;;;;;;;11.00;4.90;;;20.70;99.90;;;;;;4989084;28;20198;-63
2022/06/26 05:34:20;;;;;;;7.75;4.47;;;20.70;99.90;;;;;;5025348;22;20233;-63
2022/06/26 05:36:48;;;;;;;5.53;4.32;;;20.60;99.90;;;;;;5014135;28;24936;-63
2022/06/26 05:39:15;;;;;;;6.18;4.38;;;20.70;99.90;;;;;;5047550;28;20198;-64
2022/06/26 05:41:42;;;;;;;4.57;3.95;;;20.70;99.90;;;;;;5039668;28;20220;-63
2022/06/26 05:44:09;;;;;;;5.07;4.13;;;20.70;99.90;;;;;;5018881;28;20204;-63
2022/06/26 05:46:35;;;;;;;4.47;3.47;;;20.70;99.90;;;;;;5043019;28;20279;-63
2022/06/26 05:49:02;;;;;;;5.30;4.75;;;20.70;99.90;;;;;;5051061;28;20243;-63
2022/06/26 05:51:29;;;;;;;4.50;4.10;;;20.80;99.90;;;;;;5024963;28;20197;-63
2022/06/26 05:53:58;;;;;;;7.03;4.20;;;20.80;99.90;;;;;;5019425;28;20205;-63
2022/06/26 05:56:24;;;;;;;6.30;4.85;;;20.80;99.90;;;;;;5033089;28;20216;-62
2022/06/26 05:58:51;;;;;;;8.05;4.78;;;20.90;99.90;;;;;;5029461;28;21127;-63
2022/06/26 06:01:18;;;;;;;6.65;5.30;;;21.10;99.90;;;;;;5050522;28;20200;-63
2022/06/26 06:03:45;;;;;;;9.27;5.93;;;21.00;99.90;;;;;;5020460;28;20232;-62
2022/06/26 06:06:11;;;;;;;6.72;6.10;;;21.40;99.90;;;;;;5030366;28;20236;-63
2022/06/26 06:08:38;;;;;;;10.77;6.28;;;21.10;99.90;;;;;;5005821;28;20205;-64
2022/06/26 06:11:06;;;;;;;7.28;6.57;;;21.20;99.90;;;;;;5046118;28;20209;-63
2022/06/26 06:13:33;;;;;;;7.25;6.00;;;20.60;99.90;;;;;;5037777;28;20189;-63
2022/06/26 06:16:00;;;;;;;6.60;5.85;;;21.30;99.90;;;;;;5030437;28;20204;-64
2022/06/26 06:18:27;;;;;;;8.23;7.53;;;21.30;99.90;;;;;;5038857;28;20197;-63
2022/06/26 06:20:54;;;;;;;8.02;7.32;;;21.40;99.90;;;;;;5032012;28;20201;-63
2022/06/26 06:23:21;;;;;;;11.20;8.18;;;21.40;99.90;;;;;;5021890;28;21651;-64
2022/06/26 06:25:48;;;;;;;9.02;8.07;;;22.30;99.90;;;;;;5035289;28;20208;-63
2022/06/26 06:28:16;;;;;;;9.13;8.10;;;21.40;99.90;;;;;;5034945;28;20201;-63
2022/06/26 06:30:43;;;;;;;12.07;9.15;;;21.40;99.90;;;;;;5037189;28;21067;-63
2022/06/26 06:33:10;;;;;;;9.50;8.60;;;21.40;99.90;;;;;;5049060;28;20211;-63
2022/06/26 06:35:37;;;;;;;12.52;9.48;;;21.40;99.90;;;;;;5031933;28;20229;-64
2022/06/26 06:38:04;;;;;;;14.15;9.20;;;21.40;99.90;;;;;;5038780;28;20216;-64
2022/06/26 06:40:31;;;;;;;9.13;8.23;;;21.40;99.90;;;;;;5029553;28;20205;-63
2022/06/26 06:42:58;;;;;;;10.02;8.95;;;21.30;99.90;;;;;;5046845;28;20231;-63
2022/06/26 06:45:27;;;;;;;11.07;9.20;;;21.30;99.90;;;;;;5040208;28;20197;-64
2022/06/26 06:47:54;;;;;;;11.02;9.40;;;21.30;99.90;;;;;;5039313;28;20229;-63
2022/06/26 06:50:20;;;;;;;10.23;9.23;;;21.20;99.90;;;;;;5046579;28;20216;-63
2022/06/26 06:52:47;;;;;;;11.80;9.73;;;21.20;99.90;;;;;;5022720;28;20204;-64
2022/06/26 06:55:14;;;;;;;10.70;9.60;;;21.20;99.90;;;;;;5038418;28;20201;-63
2022/06/26 06:57:41;;;;;;;13.23;9.73;;;21.10;99.90;;;;;;5010691;28;20749;-64
2022/06/26 07:00:09;;;;;;;10.68;9.57;;;21.20;99.90;;;;;;5040706;28;20204;-64
2022/06/26 07:02:39;;;;;;;12.82;9.95;;;21.20;99.90;;;;;;5026199;28;20235;-63
2022/06/26 07:05:07;;;;;;;11.00;9.90;;;21.20;99.90;;;;;;5033141;28;20690;-63
2022/06/26 07:07:34;;;;;;;10.38;9.30;;;21.30;99.90;;;;;;5036411;28;20192;-63
2022/06/26 07:10:01;;;;;;;13.35;10.20;;;21.30;99.90;;;;;;5031766;28;20209;-63
2022/06/26 07:12:28;;;;;;;16.40;10.68;;;21.20;99.90;;;;;;5022805;28;20227;-63
2022/06/26 07:14:55;;;;;;;11.35;10.05;;;21.20;99.90;;;;;;5048810;28;20197;-64
2022/06/26 07:17:22;;;;;;;15.57;11.05;;;21.20;99.90;;;;;;5011020;28;20204;-63
2022/06/26 07:19:51;;;;;;;12.68;10.90;;;21.30;99.90;;;;;;5042070;28;20213;-64
2022/06/26 07:22:18;;;;;;;11.13;9.98;;;22.10;99.90;;;;;;5025332;28;20694;-62
2022/06/26 07:24:44;;;;;;;12.90;11.57;;;21.40;99.90;;;;;;5044770;28;20835;-62
2022/06/26 07:27:11;;;;;;;15.63;11.13;;;22.50;99.90;;;;;;5026266;28;20202;-62
2022/06/26 07:29:39;;;;;;;15.07;10.65;;;21.50;99.90;;;;;;5042584;28;21064;-64
2022/06/26 07:32:06;;;;;;;14.15;11.75;;;21.50;99.90;;;;;;5018077;28;20228;-64
2022/06/26 07:34:33;;;;;;;16.55;11.07;;;22.20;99.90;;;;;;5036337;28;20233;-64
2022/06/26 07:37:01;;;;;;;13.88;12.38;;;21.50;99.90;;;;;;5047329;28;20689;-64
2022/06/26 07:39:28;;;;;;;13.43;11.00;;;21.60;99.90;;;;;;5018278;28;20200;-64
2022/06/26 07:41:55;;;;;;;18.92;12.63;;;21.50;99.90;;;;;;5046069;28;20201;-63
2022/06/26 07:44:22;;;;;;;13.10;11.68;;;21.50;99.90;;;;;;5016377;28;20934;-62
2022/06/26 07:46:49;;;;;;;14.85;13.00;;;21.50;99.90;;;;;;5048087;28;20225;-63
2022/06/26 07:49:15;;;;;;;14.02;11.80;;;21.40;99.90;;;;;;5031354;28;20237;-63
2022/06/26 07:51:42;;;;;;;16.55;12.68;;;21.60;99.90;;;;;;5026998;28;20201;-63
2022/06/26 07:54:10;;;;;;;12.32;10.82;;;21.50;99.90;;;;;;5031732;28;20205;-63
2022/06/26 07:56:38;;;;;;;10.07;8.95;;;21.50;99.90;;;;;;5048886;28;20196;-63
2022/06/26 07:59:05;;;;;;;9.38;8.20;;;21.40;99.90;;;;;;5002622;28;20216;-63
2022/06/26 08:01:32;;;;;;;8.32;7.53;;;21.40;99.90;;;;;;5035717;28;20216;-63
2022/06/26 08:03:58;;;;;;;6.75;5.80;;;21.50;99.90;;;;;;5018171;28;20881;-63
2022/06/26 08:06:26;;;;;;;6.15;5.47;;;21.40;99.90;;;;;;5048574;28;20201;-63
2022/06/26 08:08:53;;;;;;;5.82;4.63;;;21.40;99.90;;;;;;5032679;28;20347;-63
2022/06/26 08:11:21;;;;;;;6.20;4.68;;;21.40;99.90;;;;;;5029456;28;20228;-63
2022/06/26 08:13:48;;;;;;;5.88;3.90;;;21.40;99.90;;;;;;5015713;28;20378;-62
2022/06/26 08:16:16;;;;;;;4.75;3.80;;;21.40;99.90;;;;;;5019640;28;20220;-63
2022/06/26 08:18:43;;;;;;;7.43;3.67;;;21.50;99.90;;;;;;5029329;28;20201;-64
2022/06/26 08:23:53;;;;;;;4.25;3.85;;;21.60;99.90;;;;;;4998843;28;20327;-63
2022/06/26 08:26:22;;;;;;;4.35;3.40;;;21.90;99.90;;;;;;5025452;28;20859;-64
2022/06/26 08:28:49;;;;;;;8.27;3.08;;;21.60;99.90;;;;;;5023801;28;20205;-64
2022/06/26 08:31:16;;;;;;;3.65;3.17;;;21.70;99.90;;;;;;5026745;28;20196;-63
2022/06/26 08:33:43;;;;;;;3.35;2.42;;;21.70;99.90;;;;;;5039685;28;20200;-63
2022/06/26 08:36:10;;;;;;;4.07;2.60;;;21.80;99.90;;;;;;5014889;28;20233;-63
2022/06/26 08:38:39;;;;;;;11.95;2.28;;;21.80;99.90;;;;;;5019408;28;20200;-63
2022/06/26 08:41:09;;;;;;;2.67;2.00;;;21.70;99.90;;;;;;5041056;28;20205;-63
2022/06/26 08:43:39;;;;;;;2.45;2.25;;;21.90;99.90;;;;;;5009934;28;20820;-63
2022/06/26 08:46:06;;;;;;;2.92;2.20;;;22.00;99.90;;;;;;5038916;28;20229;-62
2022/06/26 08:48:41;;;;;;;5.18;2.30;;;22.10;99.90;;;;;;5018482;28;20230;-63
2022/06/26 08:51:09;;;;;;;2.63;2.42;;;22.10;99.90;;;;;;4994453;28;20247;-63
2022/06/26 08:53:36;;;;;;;3.20;1.95;;;;;;;;;;5018366;28;20235;-61
2022/06/26 08:56:04;;;;;;;2.13;1.65;;;22.20;99.90;;;;;;5028028;28;20229;-62
2022/06/26 08:58:31;;;;;;;2.83;1.75;;;22.60;99.90;;;;;;5024664;28;21234;-62
2022/06/26 09:00:59;;;;;;;2.22;1.80;;;22.20;99.90;;;;;;5008210;28;20299;-64
2022/06/26 09:03:26;;;;;;;3.78;1.73;;;22.40;99.90;;;;;;5028099;28;21442;-62
2022/06/26 09:05:53;;;;;;;3.30;1.90;;;22.40;99.90;;;;;;5027754;28;20671;-62
2022/06/26 09:08:22;;;;;;;3.10;1.70;;;22.30;99.90;;;;;;5017054;28;20234;-62
2022/06/26 09:10:49;;;;;;;2.75;1.90;;;22.40;99.90;;;;;;5040533;28;20247;-62
2022/06/26 09:13:17;;;;;;;1.90;1.80;;;23.00;99.90;;;;;;5021489;28;20224;-64
2022/06/26 09:15:45;;;;;;;3.03;2.10;;;22.60;99.90;;;;;;5006944;28;20227;-62
2022/06/26 09:18:14;;;;;;;1.85;1.73;;;22.70;99.90;;;;;;5043733;28;20291;-62
2022/06/26 09:20:52;;;;;;;2.22;2.03;;;22.70;99.90;;;;;;5014715;28;21219;-63
2022/06/26 09:23:19;;;;;;;2.55;2.00;;;22.80;99.90;;;;;;5019681;28;20216;-63
2022/06/26 09:25:46;;;;;;;7.82;2.10;;;22.80;99.90;;;;;;5009778;28;21148;-63
2022/06/26 09:28:15;;;;;;;2.35;1.27;;;22.90;99.90;;;;;;5031900;28;20221;-63
2022/06/26 09:31:01;;;;;;;1.95;1.65;;;22.90;99.90;;;;;;5016273;28;20652;-63
2022/06/26 09:33:32;;;;;;;2.28;1.35;;;22.90;99.90;;;;;;5037612;28;20425;-63
2022/06/26 09:36:00;;;;;;;2.95;1.40;;;22.30;99.90;;;;;;5026792;28;20714;-62
2022/06/26 09:38:28;;;;;;;1.48;1.38;;;22.90;99.90;;;;;;5013490;28;20224;-62
2022/06/26 09:40:57;;;;;;;1.50;1.40;;;22.90;99.90;;;;;;5030010;28;20217;-62
2022/06/26 09:43:29;;;;;;;4.75;1.30;;;22.90;99.90;;;;;;5039577;28;20236;-62
2022/06/26 09:45:57;;;;;;;2.88;1.38;;;22.80;99.90;;;;;;4994664;28;20236;-62
2022/06/26 09:48:25;;;;;;;1.90;1.52;;;23.00;99.90;;;;;;5029690;28;20224;-63
2022/06/26 09:50:54;;;;;;;1.35;1.25;;;22.90;99.90;;;;;;5026506;28;20209;-62
2022/06/26 09:53:23;;;;;;;1.85;1.42;;;23.00;99.90;;;;;;5014164;28;20451;-62
2022/06/26 09:55:51;;;;;;;1.40;1.30;;;23.00;99.90;;;;;;5014971;28;23923;-62
2022/06/26 09:58:18;;;;;;;4.40;1.65;;;23.10;99.90;;;;;;5034009;28;20217;-62
2022/06/26 10:06:25;;;;;;;1.67;1.40;;;23.10;99.90;;;;;;5033516;28;20289;-62
2022/06/26 10:06:29;;;;;;;2.00;1.40;;;23.40;99.90;;;;;;5045707;28;20643;-63
2022/06/26 10:08:57;;;;;;;1.98;1.30;;;23.40;99.90;;;;;;5030897;28;20223;-63
2022/06/26 10:11:27;;;;;;;3.17;1.70;;;23.50;99.90;;;;;;5026234;28;20930;-63
2022/06/26 10:13:57;;;;;;;1.45;1.35;;;23.50;99.90;;;;;;5042705;28;20216;-63
2022/06/26 10:17:10;;;;;;;1.77;1.58;;;23.80;99.90;;;;;;5031446;28;20221;-63
2022/06/26 10:19:45;;;;;;;1.90;1.70;;;23.60;99.90;;;;;;4979211;28;20215;-63
2022/06/26 10:22:14;;;;;;;2.05;1.63;;;23.60;99.90;;;;;;4984058;28;20229;-63
2022/06/26 10:24:51;;;;;;;10.32;1.90;;;23.50;99.90;;;;;;4979277;28;20224;-64
2022/06/26 10:27:24;;;;;;;2.13;1.80;;;23.60;99.90;;;;;;5032903;28;20212;-63
2022/06/26 10:29:51;;;;;;;2.83;1.80;;;23.50;99.90;;;;;;5027885;28;20227;-63
2022/06/26 10:32:23;;;;;;;1.70;1.60;;;23.50;99.90;;;;;;5020594;28;20638;-63
2022/06/26 10:34:56;;;;;;;2.55;1.80;;;23.60;99.90;;;;;;5044125;28;20244;-63
2022/06/26 10:37:24;;;;;;;2.05;1.75;;;23.50;99.90;;;;;;5016062;28;20303;-63
2022/06/26 10:39:54;;;;;;;1.65;1.52;;;23.40;99.90;;;;;;5032141;28;20855;-63
2022/06/26 10:45:10;;;;;;;1.52;1.40;;;23.40;99.90;;;;;;5038615;28;20244;-63
2022/06/26 10:47:46;;;;;;;1.70;1.60;;;23.50;99.90;;;;;;5003773;28;20586;-64
2022/06/26 10:50:25;;;;;;;5.50;1.70;;;23.40;99.90;;;;;;5033237;28;20383;-63
2022/06/26 10:52:53;;;;;;;3.70;1.60;;;23.50;99.90;;;;;;5021669;28;20690;-63
2022/06/26 10:55:20;;;;;;;4.03;1.83;;;23.30;99.90;;;;;;5039028;28;20361;-63
2022/06/26 10:57:49;;;;;;;2.63;1.70;;;23.20;99.90;;;;;;5021563;28;20777;-63
2022/06/26 11:00:16;;;;;;;2.72;1.65;;;23.10;99.90;;;;;;5040501;28;20749;-63
2022/06/26 11:02:45;;;;;;;2.10;1.52;;;23.20;99.90;;;;;;5016768;28;20581;-63
2022/06/26 11:05:13;;;;;;;6.45;1.60;;;23.30;99.90;;;;;;5040321;28;20221;-63
2022/06/26 11:07:45;;;;;;;1.85;1.63;;;23.40;99.90;;;;;;5011146;28;20866;-63
2022/06/26 11:10:15;;;;;;;2.08;1.63;;;23.40;99.90;;;;;;5034000;28;20220;-63
2022/06/26 11:12:44;;;;;;;1.85;1.50;;;23.30;99.90;;;;;;5002807;22;20868;-63
2022/06/26 11:15:26;;;;;;;2.22;1.77;;;23.40;99.90;;;;;;5015196;28;20221;-63
2022/06/26 11:17:55;;;;;;;3.03;1.40;;;23.50;99.90;;;;;;4995443;28;21658;-63
2022/06/26 11:23:25;;;;;;;1.80;1.70;;;23.40;99.90;;;;;;5006539;28;20220;-62
2022/06/26 11:25:57;;;;;;;1.83;1.70;;;23.40;99.90;;;;;;5014337;28;20229;-62
2022/06/26 11:28:29;;;;;;;1.88;1.77;;;23.40;99.90;;;;;;5005423;28;20864;-62
2022/06/26 11:30:56;;;;;;;1.70;1.60;;;23.50;99.90;;;;;;5001046;28;20253;-63
2022/06/26 11:33:25;;;;;;;2.97;1.80;;;23.60;99.90;;;;;;5014082;28;20637;-62
2022/06/26 11:35:53;;;;;;;1.95;1.73;;;23.50;99.90;;;;;;5000872;28;21661;-63
2022/06/26 11:38:21;;;;;;;2.03;1.90;;;23.50;99.90;;;;;;5022965;28;20221;-62
2022/06/26 11:40:49;;;;;;;2.85;1.90;;;23.60;99.90;;;;;;5006630;28;20693;-62
2022/06/26 11:43:20;;;;;;;2.45;2.10;;;23.60;99.90;;;;;;5012819;28;20213;-62
2022/06/26 11:45:47;;;;;;;3.17;1.70;;;23.60;99.90;;;;;;4996750;28;20572;-62
2022/06/26 11:48:17;;;;;;;3.67;2.00;;;23.60;99.90;;;;;;5012296;28;20237;-63
2022/06/26 11:50:46;;;;;;;2.78;1.60;;;23.70;99.90;;;;;;5008622;28;20211;-63
2022/06/26 11:53:19;;;;;;;2.08;1.88;;;23.70;99.90;;;;;;5014551;28;21224;-63
2022/06/26 11:55:48;;;;;;;1.98;1.83;;;23.80;99.90;;;;;;5015629;28;20431;-63
2022/06/26 11:58:18;;;;;;;2.83;2.15;;;23.60;99.90;;;;;;5005701;28;20967;-62
2022/06/26 12:00:45;;;;;;;2.90;2.13;;;23.50;99.90;;;;;;4994607;28;20233;-62
2022/06/26 12:03:13;;;;;;;4.40;2.03;;;23.40;99.90;;;;;;5007733;28;20221;-62
2022/06/26 12:05:41;;;;;;;2.20;2.00;;;23.30;99.90;;;;;;5002622;28;20237;-63
2022/06/26 12:08:15;;;;;;;2.58;1.92;;;23.40;99.90;;;;;;5014071;28;20225;-63
2022/06/26 12:10:43;;;;;;;2.00;1.70;;;23.40;99.90;;;;;;5019140;28;20717;-63
2022/06/26 12:13:20;;;;;;;4.00;1.90;;;23.50;99.90;;;;;;5002216;28;21242;-63
2022/06/26 12:15:48;;;;;;;3.35;2.08;;;23.50;99.90;;;;;;5007824;28;20237;-62
2022/06/26 12:18:15;;;;;;;1.90;1.75;;;23.60;99.90;;;;;;5010172;28;20202;-63
2022/06/26 12:20:42;;;;;;;2.25;2.05;;;23.60;99.90;;;;;;4993254;28;20607;-63
2022/06/26 12:23:11;;;;;;;1.95;1.77;;;23.60;99.90;;;;;;5022231;28;20236;-63
2022/06/26 12:25:39;;;;;;;3.83;2.28;;;23.60;99.90;;;;;;5004656;28;20609;-63
2022/06/26 12:28:07;;;;;;;1.90;1.80;;;23.60;99.90;;;;;;5009729;28;20202;-63
2022/06/26 12:30:35;;;;;;;2.10;1.80;;;23.50;99.90;;;;;;5007430;28;20205;-62
2022/06/26 12:33:05;;;;;;;1.85;1.75;;;23.60;99.90;;;;;;5012617;28;20217;-63
2022/06/26 12:35:34;;;;;;;2.40;1.95;;;23.80;99.90;;;;;;5010491;28;20198;-63
2022/06/26 12:38:03;;;;;;;1.85;1.75;;;23.80;99.90;;;;;;4999150;28;20424;-63
2022/06/26 12:40:34;;;;;;;5.43;1.95;;;23.80;99.90;;;;;;5018429;28;20977;-62
2022/06/26 12:43:01;;;;;;;2.00;1.80;;;23.70;99.90;;;;;;5005095;28;20557;-63
2022/06/26 12:45:28;;;;;;;1.83;1.55;;;23.80;99.90;;;;;;5009247;28;20421;-63
2022/06/26 12:47:55;;;;;;;2.22;2.03;;;23.80;99.90;;;;;;5012889;28;20205;-62
2022/06/26 12:50:24;;;;;;;2.80;2.00;;;23.90;99.90;;;;;;5018231;28;20205;-61
2022/06/26 12:52:51;;;;;;;2.47;1.58;;;24.10;99.90;;;;;;5006529;28;20225;-62
2022/06/26 12:55:18;;;;;;;3.67;1.73;;;24.00;99.90;;;;;;5012601;28;20217;-62
2022/06/26 12:57:45;;;;;;;2.10;1.80;;;24.00;99.90;;;;;;4993609;28;20594;-62
2022/06/26 13:00:12;;;;;;;1.92;1.70;;;24.00;99.90;;;;;;5003526;28;20226;-62
2022/06/26 13:02:39;;;;;;;3.55;1.60;;;23.30;99.90;;;;;;4980272;28;20198;-62
2022/06/26 13:05:07;;;;;;;1.98;1.75;;;24.20;99.90;;;;;;5014915;28;20228;-62
2022/06/26 13:07:35;;;;;;;1.70;1.60;;;24.20;99.90;;;;;;5002181;28;20304;-62